Terminal Aerodrome Forecast
Issued by NWS

Home | Current Version | Previous Version | Graphics & Text | Print | Product List | Glossary On
Versions: 1 2 3 4 5 6 7 8 9 10 11 12 13 14 15 16 17 18 19 20 21 22 23 24 25 26 27 28 29 30
955
FTUS43 KLOT 260859 AAA
TAFDPA
TAF AMD
KDPA 260859Z 2609/2706 19007KT P6SM BKN080
      TEMPO 2613/2615 -SN
     FM261500 20016G25KT P6SM BKN060
     FM261730 23021G35KT P6SM FEW060
     FM262300 22013G22KT P6SM FEW250
     FM270100 21008KT P6SM SCT050=

USA.gov is the U.S. government's official web portal to all federal, state and local government web resources and services.